Airfield :
LOGIN :

Register | Disclaimer

   EN    FR    IT 

 










Legend :    VFR   Marginal VFR   IFR   Intensive IFR   Very Intensive IFR
Visi :
Ceiling :
>= 8 km
>= 3000ft
5 to 8 km
1000 to 3000 ft
1500m to 5 km
500 to 1000 ft
800 to 1500m
200 to 500 ft
< 800m
< 200 ft
Symbols :   Thunderstorms  Fog  Heavy snow  Heavy precipitations  Wind > 20 kt
SIGMETs :     Misc.  Thunderstorms  Icing  Turbulence  Mountain Waves  Volcanic Ashes







- Airport Elevation : 3 ft
- IATA code : DHR


EHKD - Den Helder De Kooy

CURRENT METAR :
  • 211055Z AUTO 26013KT 220V290 9999 FEW018 OVC270 19/14 Q1020 BLU

EXPIRED METARs :
  • 211025Z AUTO 26014KT 230V290 9999 FEW018 BKN280 BKN360 18/13 Q1020 BLU
  • 211009Z AUTO 27014KT 230V300 9999 FEW016 SCT020 19/15 Q1020 WHT
  • 210955Z AUTO 26014KT 230V300 9999 FEW017 SCT290 19/14 Q1020 BLU
  • 210925Z AUTO 27013KT 240V310 9999 FEW350 19/14 Q1019 BLU
  • 210855Z AUTO 27013KT 240V310 9999 NCD 18/13 Q1019 BLU 27012KT CAVOK
  • 210825Z AUTO 27013KT 230V310 9999 NCD 18/14 Q1018 BLU 27012KT CAVOK

TAF TAF EHKD
Valid from the 21 at 09:00 until the 21 at 21:00 UTC


210812Z 2109/2121 27012KT CAVOK
BECMG 2115/2117 24008KT
No reported NOTAMs for that airfield.



MET'MAP, your aeronautical weather chart ! - Copyright ORBIFLY December 2007 - Disclaimer

ORBIFLY MET'MAP TEAM :

Programming & Development : Alexandra Zaïnal
Concept & Development : Baudouin d'Aumeries
Co-Development & Prog : Marc-Olivier Méhu
Technical & hardware support : Manuel Goepfert

Contact : metmap@orbifly.com




SOURCES & CREDITS :

   NOAA